Time;durP1;ratioP1;P1;durP2;ratioP2;P2;SDS_P1;SDS_P2;PMS_P1;PMS_P2;Temp;Humidity;BMP_temperature;BMP_pressure;BME280_temperature;BME280_humidity;BME280_pressure;Samples;Min_cycle;Max_cycle;Signal;HPM_P1;HPM_P2
2023/02/09 00:02:39;;;;;;;;;;;;;;;18.34;53.40;102965.96;2266934;78;51303;-71
2023/02/09 00:05:41;;;;;;;;;;;;;;;18.30;53.47;102950.25;2243818;78;51145;-71
2023/02/09 00:08:42;;;;;;;;;;;;;;;18.25;53.49;102945.26;2243739;78;50629;-72
2023/02/09 00:15:04;;;;;;;;;;;;;;;18.17;53.59;102929.80;2247382;78;24408;-71
2023/02/09 00:18:05;;;;;;;;;;;;;;;18.13;53.81;102927.48;2243419;78;51752;-72
2023/02/09 00:21:09;;;;;;;;;;;;;;;18.12;53.92;102928.48;2262241;77;51569;-71
2023/02/09 00:24:11;;;;;;;;;;;;;;;18.13;53.95;102928.34;2302221;77;51620;-71
2023/02/09 00:27:12;;;;;;;;;;;;;;;18.18;53.90;102931.49;2303837;76;50717;-70
2023/02/09 00:30:14;;;;;;;;;;;;;;;18.24;53.75;102927.48;2278254;77;50987;-72
2023/02/09 00:33:15;;;;;;;;;;;;;;;18.30;53.65;102931.48;2304188;76;51643;-71
2023/02/09 00:36:17;;;;;;;;;;;;;;;18.33;53.60;102917.83;2303780;76;50746;-71
2023/02/09 00:39:18;;;;;;;;;;;;;;;18.38;53.50;102910.27;2303958;76;51519;-72
2023/02/09 00:42:20;;;;;;;;;;;;;;;18.42;53.45;102903.19;2278538;77;50781;-71
2023/02/09 00:45:22;;;;;;;;;;;;;;;18.44;53.32;102903.89;2303877;76;50748;-71
2023/02/09 00:48:23;;;;;;;;;;;;;;;18.40;53.38;102903.80;2302245;77;50417;-72
2023/02/09 00:51:25;;;;;;;;;;;;;;;18.36;53.44;102907.70;2273644;77;51225;-71
2023/02/09 00:54:26;;;;;;;;;;;;;;;18.31;53.51;102901.87;2243196;77;49530;-71
2023/02/09 00:57:28;;;;;;;;;;;;;;;18.28;53.58;102899.44;2266595;78;50244;-71
2023/02/09 01:00:30;;;;;;;;;;;;;;;18.24;53.65;102902.03;2266752;78;50398;-72
2023/02/09 01:03:31;;;;;;;;;;;;;;;18.19;53.80;102897.53;2266827;78;50353;-70
2023/02/09 01:06:33;;;;;;;;;;;;;;;18.15;53.83;102885.35;2243291;78;51816;-72
2023/02/09 01:09:34;;;;;;;;;;;;;;;18.10;54.06;102879.02;2266838;78;51475;-72
2023/02/09 01:12:37;;;;;;;;;;;;;;;18.09;54.19;102886.71;2266350;77;53800;-71
2023/02/09 01:15:39;;;;;;;;;;;;;;;18.14;54.20;102885.00;2266847;78;50389;-72
2023/02/09 01:18:41;;;;;;;;;;;;;;;18.19;54.04;102880.13;2241461;78;51029;-71
2023/02/09 01:21:43;;;;;;;;;;;;;;;18.25;53.91;102873.75;2266643;78;50691;-72
2023/02/09 01:24:44;;;;;;;;;;;;;;;18.32;53.78;102875.94;2241146;78;51656;-72
2023/02/09 01:27:46;;;;;;;;;;;;;;;18.36;53.76;102886.25;2241263;78;50641;-73
2023/02/09 01:30:47;;;;;;;;;;;;;;;18.41;53.65;102876.50;2241326;78;53572;-72
2023/02/09 01:33:49;;;;;;;;;;;;;;;18.41;53.60;102871.14;2264607;78;51499;-71
2023/02/09 01:36:51;;;;;;;;;;;;;;;18.36;53.66;102866.16;2264633;78;50255;-72
2023/02/09 01:39:52;;;;;;;;;;;;;;;18.33;53.72;102861.55;2264537;78;51585;-71
2023/02/09 01:42:54;;;;;;;;;;;;;;;18.30;53.73;102855.11;2243875;77;51557;-70
2023/02/09 01:45:55;;;;;;;;;;;;;;;18.26;53.77;102849.13;2280683;77;50462;-72
2023/02/09 01:49:05;;;;;;;;;;;;;;;18.22;53.87;102843.69;2304835;77;50392;-73
2023/02/09 01:52:08;;;;;;;;;;;;;;;18.17;53.98;102837.86;2304744;77;50329;-72
2023/02/09 01:55:11;;;;;;;;;;;;;;;18.13;54.04;102838.58;2279636;77;51104;-73
2023/02/09 01:58:13;;;;;;;;;;;;;;;18.11;54.18;102835.66;2304918;77;50758;-72
2023/02/09 02:01:18;;;;;;;;;;;;;;;18.12;54.19;102834.70;2305276;77;50683;-71
2023/02/09 02:04:20;;;;;;;;;;;;;;;18.16;54.15;102824.08;2305009;77;50464;-71
2023/02/09 02:07:26;;;;;;;;;;;;;;;18.19;54.07;102819.83;2280624;77;52426;-71
2023/02/09 02:10:28;;;;;;;;;;;;;;;18.25;53.98;102816.63;2305010;77;51525;-72
2023/02/09 02:13:30;;;;;;;;;;;;;;;18.28;53.92;102810.51;2304887;77;51542;-71
2023/02/09 02:16:39;;;;;;;;;;;;;;;18.32;53.89;102805.77;2305255;77;51343;-72
2023/02/09 02:19:59;;;;;;;;;;;;;;;18.35;53.78;102801.48;2280597;77;52422;-71
2023/02/09 02:23:14;;;;;;;;;;;;;;;18.40;53.75;102791.22;2285319;77;50806;-71
2023/02/09 02:26:32;;;;;;;;;;;;;;;18.40;53.69;102797.92;2266796;78;51546;-72
2023/02/09 02:29:52;;;;;;;;;;;;;;;18.35;53.75;102800.14;2266575;76;50369;-71
2023/02/09 02:33:12;;;;;;;;;;;;;;;18.30;53.88;102788.11;2243406;78;51305;-71
2023/02/09 02:36:18;;;;;;;;;;;;;;;18.26;53.88;102788.38;2266909;78;50330;-72
2023/02/09 02:39:24;;;;;;;;;;;;;;;18.22;53.95;102787.41;2266307;76;51400;-71
2023/02/09 02:45:48;;;;;;;;;;;;;;;18.12;54.03;102772.59;2267384;78;22486;-72
2023/02/09 02:48:54;;;;;;;;;;;;;;;18.08;54.23;102778.32;2266954;78;50053;-73
2023/02/09 02:51:56;;;;;;;;;;;;;;;18.06;54.37;102764.58;2282766;77;50783;-71
2023/02/09 02:54:59;;;;;;;;;;;;;;;18.11;54.29;102770.02;2302447;76;50352;-71
2023/02/09 02:58:02;;;;;;;;;;;;;;;18.14;54.22;102761.27;2278344;77;50326;-72
2023/02/09 03:01:04;;;;;;;;;;;;;;;18.20;54.12;102759.39;2302518;77;50640;-72
2023/02/09 03:04:05;;;;;;;;;;;;;;;18.25;54.07;102754.50;2302384;77;51349;-71
2023/02/09 03:07:07;;;;;;;;;;;;;;;18.31;53.97;102756.30;2302463;77;51581;-73
2023/02/09 03:10:28;;;;;;;;;;;;;;;18.35;53.84;102748.37;2303999;76;50167;-71
2023/02/09 03:13:32;;;;;;;;;;;;;;;18.36;53.74;102754.92;2303860;76;51458;-71
2023/02/09 03:16:41;;;;;;;;;;;;;;;18.31;53.83;102751.78;2302370;77;50383;-71
2023/02/09 03:19:46;;;;;;;;;;;;;;;18.26;53.86;102755.34;2296090;76;50493;-71
2023/02/09 03:22:49;;;;;;;;;;;;;;;18.22;53.89;102744.54;2278469;77;51479;-71
2023/02/09 03:25:51;;;;;;;;;;;;;;;18.20;53.89;102746.49;2266881;78;50845;-71
2023/02/09 03:28:54;;;;;;;;;;;;;;;18.16;53.94;102743.23;2266840;78;50440;-72
2023/02/09 03:31:55;;;;;;;;;;;;;;;18.12;53.98;102748.48;2266805;78;51542;-71
2023/02/09 03:34:57;;;;;;;;;;;;;;;18.08;54.07;102748.86;2243316;78;52629;-71
2023/02/09 03:38:00;;;;;;;;;;;;;;;18.05;54.22;102742.77;2266838;78;51589;-73
2023/02/09 03:41:01;;;;;;;;;;;;;;;18.06;54.27;102728.91;2266759;78;50352;-72
2023/02/09 03:47:22;;;;;;;;;;;;;;;18.13;54.23;102721.19;2267240;78;22566;-72
2023/02/09 03:50:25;;;;;;;;;;;;;;;18.18;54.16;102714.95;2245218;78;50289;-72
2023/02/09 03:53:28;;;;;;;;;;;;;;;18.23;54.02;102712.23;2288096;77;51480;-71
2023/02/09 03:56:29;;;;;;;;;;;;;;;18.28;53.90;102719.89;2303681;76;50445;-72
2023/02/09 03:59:34;;;;;;;;;;;;;;;18.32;53.83;102721.84;2303828;76;51643;-72
2023/02/09 04:02:34;;;;;;;;;;;;;;;18.33;53.75;102716.33;2303943;77;23011;-71
2023/02/09 04:05:36;;;;;;;;;;;;;;;18.31;53.76;102703.55;2302415;77;51428;-72
2023/02/09 04:08:37;;;;;;;;;;;;;;;18.26;53.83;102707.11;2302317;77;50038;-73
2023/02/09 04:11:39;;;;;;;;;;;;;;;18.22;53.87;102716.41;2303790;76;50057;-71
2023/02/09 04:14:40;;;;;;;;;;;;;;;18.17;53.89;102702.05;2304120;76;50665;-72
2023/02/09 04:17:42;;;;;;;;;;;;;;;18.15;53.95;102704.50;2303905;76;50734;-72
2023/02/09 04:20:43;;;;;;;;;;;;;;;18.12;54.04;102708.78;2284075;77;52445;-71
2023/02/09 04:23:46;;;;;;;;;;;;;;;18.10;54.04;102702.70;2243336;78;51024;-72
2023/02/09 04:26:47;;;;;;;;;;;;;;;18.02;54.27;102706.87;2266756;78;50811;-72
2023/02/09 04:29:49;;;;;;;;;;;;;;;18.01;54.42;102701.66;2266824;78;51302;-72
2023/02/09 04:32:51;;;;;;;;;;;;;;;18.05;54.38;102711.12;2243381;78;51464;-71
2023/02/09 04:35:52;;;;;;;;;;;;;;;18.09;54.26;102701.02;2243531;78;50138;-71
2023/02/09 04:38:54;;;;;;;;;;;;;;;18.14;54.17;102698.80;2266956;78;51457;-71
2023/02/09 04:41:55;;;;;;;;;;;;;;;18.19;54.10;102696.58;2243300;78;51539;-71
2023/02/09 04:44:57;;;;;;;;;;;;;;;18.24;53.95;102701.89;2266866;78;51462;-71
2023/02/09 04:47:59;;;;;;;;;;;;;;;18.27;53.91;102697.61;2266883;78;51487;-71
2023/02/09 04:51:00;;;;;;;;;;;;;;;18.32;53.81;102698.56;2254111;78;51433;-72
2023/02/09 04:54:02;;;;;;;;;;;;;;;18.35;53.71;102699.63;2261097;78;51560;-70
2023/02/09 05:00:23;;;;;;;;;;;;;;;18.29;53.76;102692.13;2267198;78;23293;-71
2023/02/09 05:03:25;;;;;;;;;;;;;;;18.25;53.93;102689.34;2243647;78;51619;-72
2023/02/09 05:06:26;;;;;;;;;;;;;;;18.19;54.00;102687.20;2266900;78;50647;-72
2023/02/09 05:09:28;;;;;;;;;;;;;;;18.16;54.01;102688.77;2266827;78;51536;-72
2023/02/09 05:12:29;;;;;;;;;;;;;;;18.13;54.07;102689.03;2243215;78;51431;-73
2023/02/09 05:15:31;;;;;;;;;;;;;;;18.08;54.10;102683.22;2243351;78;52355;-72
2023/02/09 05:18:33;;;;;;;;;;;;;;;18.03;54.26;102687.16;2243286;78;50466;-72
2023/02/09 05:21:34;;;;;;;;;;;;;;;18.02;54.44;102689.45;2285860;77;50257;-73
2023/02/09 05:24:36;;;;;;;;;;;;;;;18.05;54.36;102682.49;2266707;78;50412;-71
2023/02/09 05:27:37;;;;;;;;;;;;;;;18.10;54.30;102675.91;2212362;79;50053;-71
2023/02/09 05:30:39;;;;;;;;;;;;;;;18.16;54.24;102686.09;2237848;78;51558;-70
2023/02/09 05:33:40;;;;;;;;;;;;;;;18.20;54.28;102668.78;2219267;79;51429;-73
2023/02/09 05:36:42;;;;;;;;;;;;;;;18.25;54.35;102670.58;2258845;78;51505;-73
2023/02/09 05:39:44;;;;;;;;;;;;;;;18.28;54.16;102677.86;2212714;79;52513;-72
2023/02/09 05:42:45;;;;;;;;;;;;;;;18.28;53.98;102671.66;2237980;78;50251;-71
2023/02/09 05:45:47;;;;;;;;;;;;;;;18.24;53.90;102676.94;2210402;79;50108;-71
2023/02/09 05:48:48;;;;;;;;;;;;;;;18.17;53.89;102669.05;2258150;78;50353;-72
2023/02/09 05:51:50;;;;;;;;;;;;;;;18.13;53.85;102671.13;2262734;77;50873;-72
2023/02/09 05:54:51;;;;;;;;;;;;;;;18.10;53.68;102675.91;2244901;79;50263;-72
2023/02/09 05:57:53;;;;;;;;;;;;;;;18.05;53.55;102673.12;2258058;78;50631;-71
2023/02/09 06:00:55;;;;;;;;;;;;;;;18.02;53.47;102678.73;2258094;78;51456;-73
2023/02/09 06:03:57;;;;;;;;;;;;;;;17.99;53.48;102679.01;2270469;77;51526;-73
2023/02/09 06:06:59;;;;;;;;;;;;;;;18.00;53.45;102691.41;2251900;77;50764;-73
2023/02/09 06:10:00;;;;;;;;;;;;;;;18.01;53.30;102686.92;2283785;77;53547;-73
2023/02/09 06:13:02;;;;;;;;;;;;;;;18.03;53.13;102688.50;2258302;77;51463;-72
2023/02/09 06:16:04;;;;;;;;;;;;;;;18.09;52.81;102678.24;2302770;77;52766;-72
2023/02/09 06:19:06;;;;;;;;;;;;;;;18.12;52.66;102683.33;2302851;77;51523;-72
2023/02/09 06:22:07;;;;;;;;;;;;;;;18.15;52.56;102681.73;2283746;77;50724;-72
2023/02/09 06:25:09;;;;;;;;;;;;;;;18.17;52.54;102679.77;2299003;77;51528;-72
2023/02/09 06:28:10;;;;;;;;;;;;;;;18.18;52.56;102679.62;2302759;77;51008;-72
2023/02/09 06:31:12;;;;;;;;;;;;;;;18.21;52.78;102682.53;2302935;77;51532;-72
2023/02/09 06:34:14;;;;;;;;;;;;;;;18.26;53.12;102682.52;2298766;77;50455;-72
2023/02/09 06:37:15;;;;;;;;;;;;;;;18.26;53.24;102683.86;2298832;77;50280;-72
2023/02/09 06:40:17;;;;;;;;;;;;;;;18.24;53.36;102682.30;2250248;78;51017;-72
2023/02/09 06:43:18;;;;;;;;;;;;;;;18.19;53.40;102677.81;2251879;78;50374;-71
2023/02/09 06:46:20;;;;;;;;;;;;;;;18.15;53.37;102680.39;2259758;78;50811;-72
2023/02/09 06:49:24;;;;;;;;;;;;;;;18.11;53.40;102685.63;2269007;77;51541;-74
2023/02/09 06:52:25;;;;;;;;;;;;;;;18.08;53.52;102684.56;2264256;77;23056;-72
2023/02/09 06:55:26;;;;;;;;;;;;;;;18.04;53.59;102686.16;2305295;77;51646;-72
2023/02/09 06:58:28;;;;;;;;;;;;;;;18.01;53.72;102682.41;2305392;77;51525;-72
2023/02/09 07:01:30;;;;;;;;;;;;;;;18.03;53.70;102671.55;2305287;77;50249;-71
2023/02/09 07:04:31;;;;;;;;;;;;;;;18.04;53.76;102682.15;2293307;77;52264;-72
2023/02/09 07:07:33;;;;;;;;;;;;;;;18.06;54.03;102673.50;2292310;77;50143;-71
2023/02/09 07:10:34;;;;;;;;;;;;;;;18.12;53.82;102680.66;2294504;77;50396;-71
2023/02/09 07:13:36;;;;;;;;;;;;;;;18.16;53.64;102684.29;2274886;77;50290;-72
2023/02/09 07:16:37;;;;;;;;;;;;;;;18.19;53.94;102692.55;2283082;77;51641;-72
2023/02/09 07:19:39;;;;;;;;;;;;;;;18.29;53.94;102698.83;2305286;77;50275;-71
2023/02/09 07:22:41;;;;;;;;;;;;;;;18.37;53.63;102702.16;2282938;77;50785;-71
2023/02/09 07:25:42;;;;;;;;;;;;;;;18.35;53.49;102694.27;2268054;78;50654;-72
2023/02/09 07:28:44;;;;;;;;;;;;;;;18.32;53.58;102695.88;2246044;78;50965;-70
2023/02/09 07:31:45;;;;;;;;;;;;;;;18.31;53.51;102688.80;2246325;78;51525;-71
2023/02/09 07:34:47;;;;;;;;;;;;;;;18.27;53.59;102690.06;2246183;78;51454;-71
2023/02/09 07:37:49;;;;;;;;;;;;;;;18.24;53.63;102680.45;2246446;78;50230;-70
2023/02/09 07:40:50;;;;;;;;;;;;;;;18.18;53.71;102686.81;2220615;78;52646;-70
2023/02/09 07:43:52;;;;;;;;;;;;;;;18.16;53.71;102692.79;2246089;78;51609;-71
2023/02/09 07:46:55;;;;;;;;;;;;;;;18.13;53.77;102689.88;2267305;78;50028;-71
2023/02/09 07:49:56;;;;;;;;;;;;;;;18.15;53.78;102687.09;2246975;78;22314;-70
2023/02/09 07:52:58;;;;;;;;;;;;;;;18.18;53.68;102689.50;2220660;78;52514;-71
2023/02/09 07:56:00;;;;;;;;;;;;;;;18.22;53.56;102677.55;2282603;77;51397;-70
2023/02/09 07:59:01;;;;;;;;;;;;;;;18.26;53.47;102682.98;2267321;78;51388;-70
2023/02/09 08:02:03;;;;;;;;;;;;;;;18.32;53.32;102682.98;2246022;78;50633;-71
2023/02/09 08:05:07;;;;;;;;;;;;;;;18.35;53.20;102683.55;2246384;78;51218;-71
2023/02/09 08:08:08;;;;;;;;;;;;;;;18.41;53.02;102684.35;2267276;78;51602;-71
2023/02/09 08:11:10;;;;;;;;;;;;;;;18.43;52.89;102682.89;2246181;78;51428;-69
2023/02/09 08:14:13;;;;;;;;;;;;;;;18.39;52.88;102670.72;2267219;78;51454;-71
2023/02/09 08:17:26;;;;;;;;;;;;;;;18.35;52.89;102671.49;2246009;78;51221;-71
2023/02/09 08:20:28;;;;;;;;;;;;;;;18.32;52.93;102676.28;2267683;78;24576;-72
2023/02/09 08:23:30;;;;;;;;;;;;;;;18.28;52.95;102668.97;2267038;78;50475;-71
2023/02/09 08:26:32;;;;;;;;;;;;;;;18.21;53.03;102661.97;2288203;77;51531;-71
2023/02/09 08:29:34;;;;;;;;;;;;;;;18.19;53.03;102661.24;2303494;77;49592;-71
2023/02/09 08:32:35;;;;;;;;;;;;;;;18.15;53.10;102665.65;2299347;77;51509;-72
2023/02/09 08:35:37;;;;;;;;;;;;;;;18.14;53.14;102670.66;2303597;77;51493;-71
2023/02/09 08:38:38;;;;;;;;;;;;;;;18.17;53.05;102659.67;2303539;77;50376;-71
2023/02/09 08:41:40;;;;;;;;;;;;;;;18.19;52.98;102653.70;2303310;77;51189;-70
2023/02/09 08:44:41;;;;;;;;;;;;;;;18.22;52.89;102658.30;2303303;77;50080;-71
2023/02/09 08:47:43;;;;;;;;;;;;;;;18.27;52.80;102653.89;2303469;77;50730;-71
2023/02/09 08:50:45;;;;;;;;;;;;;;;18.33;52.61;102652.50;2299555;77;51564;-70
2023/02/09 08:53:50;;;;;;;;;;;;;;;18.36;52.51;102657.59;2299239;77;50972;-71
2023/02/09 08:56:49;;;;;;;;;;;;;;;18.39;52.40;102650.13;2289134;77;22418;-71
2023/02/09 08:59:51;;;;;;;;;;;;;;;18.41;52.35;102653.53;2299489;77;50360;-71
2023/02/09 09:02:53;;;;;;;;;;;;;;;18.47;52.20;102650.80;2303197;77;50750;-71
2023/02/09 09:05:58;;;;;;;;;;;;;;;18.46;52.14;102650.45;2277572;77;50889;-71
2023/02/09 09:08:59;;;;;;;;;;;;;;;18.44;52.17;102649.73;2299568;77;50275;-71
2023/02/09 09:12:01;;;;;;;;;;;;;;;18.40;52.21;102653.18;2299371;77;50248;-71
2023/02/09 09:15:03;;;;;;;;;;;;;;;18.34;52.32;102657.75;2288175;77;50283;-71
2023/02/09 09:18:04;;;;;;;;;;;;;;;18.32;52.33;102655.68;2248689;78;50821;-71
2023/02/09 09:21:06;;;;;;;;;;;;;;;18.30;52.35;102653.62;2267457;78;50351;-71
2023/02/09 09:24:07;;;;;;;;;;;;;;;18.23;52.43;102650.61;2267287;78;50233;-71
2023/02/09 09:27:09;;;;;;;;;;;;;;;18.20;52.53;102646.02;2267389;78;50764;-71
2023/02/09 09:30:11;;;;;;;;;;;;;;;18.20;52.48;102648.69;2267470;78;51485;-71
2023/02/09 09:33:14;;;;;;;;;;;;;;;18.24;52.41;102643.44;2271082;78;50278;-71
2023/02/09 09:36:16;;;;;;;;;;;;;;;18.27;52.38;102652.55;2271036;78;50297;-71
2023/02/09 09:39:17;;;;;;;;;;;;;;;18.29;52.27;102651.93;2271304;78;49351;-71
2023/02/09 09:42:23;;;;;;;;;;;;;;;18.36;52.13;102646.87;2270814;78;49626;-71
2023/02/09 09:45:26;;;;;;;;;;;;;;;18.38;52.07;102640.40;2283376;77;50798;-71
2023/02/09 09:48:35;;;;;;;;;;;;;;;18.44;51.91;102643.03;2268616;77;50291;-72
2023/02/09 09:51:41;;;;;;;;;;;;;;;18.48;51.76;102638.61;2263005;78;51432;-69
2023/02/09 09:54:43;;;;;;;;;;;;;;;18.54;51.66;102636.38;2221220;78;52632;-70
2023/02/09 09:57:44;;;;;;;;;;;;;;;18.54;51.57;102637.72;2246315;78;50262;-71
2023/02/09 10:00:46;;;;;;;;;;;;;;;18.51;51.59;102630.80;2288562;77;50372;-71
2023/02/09 10:03:47;;;;;;;;;;;;;;;18.46;51.66;102624.98;2295225;77;50296;-70
2023/02/09 10:07:01;;;;;;;;;;;;;;;18.42;51.73;102609.67;2265407;77;50029;-71
2023/02/09 10:10:04;;;;;;;;;;;;;;;18.37;51.81;102605.67;2295573;77;50776;-71
2023/02/09 10:13:10;;;;;;;;;;;;;;;18.31;51.92;102607.06;2289554;77;51538;-71
2023/02/09 10:16:13;;;;;;;;;;;;;;;18.26;52.03;102599.92;2299582;77;50822;-71
2023/02/09 10:19:22;;;;;;;;;;;;;;;18.25;52.06;102607.61;2277460;77;51977;-70
2023/02/09 10:22:23;;;;;;;;;;;;;;;18.23;52.05;102609.07;2299363;77;50768;-70
2023/02/09 10:25:29;;;;;;;;;;;;;;;18.26;52.03;102607.95;2303569;77;51619;-71
2023/02/09 10:28:32;;;;;;;;;;;;;;;18.28;51.97;102602.82;2292495;77;50352;-71
2023/02/09 10:31:35;;;;;;;;;;;;;;;18.32;51.90;102591.86;2303531;77;52328;-71
2023/02/09 10:34:41;;;;;;;;;;;;;;;18.36;51.81;102583.89;2303380;77;50303;-71
2023/02/09 10:37:43;;;;;;;;;;;;;;;18.38;51.69;102578.75;2299443;77;50446;-71
2023/02/09 10:40:46;;;;;;;;;;;;;;;18.43;51.59;102582.37;2283239;77;50387;-71
2023/02/09 10:43:49;;;;;;;;;;;;;;;18.51;51.39;102586.56;2277127;77;50066;-71
2023/02/09 10:46:52;;;;;;;;;;;;;;;18.53;51.33;102585.10;2267406;78;50671;-72
2023/02/09 10:50:14;;;;;;;;;;;;;;;18.52;51.33;102584.73;2264883;78;51548;-72
2023/02/09 10:53:20;;;;;;;;;;;;;;;18.52;51.25;102576.69;2267299;78;50286;-72
2023/02/09 10:56:22;;;;;;;;;;;;;;;18.44;51.36;102564.80;2266038;78;51528;-70
2023/02/09 10:59:24;;;;;;;;;;;;;;;18.43;51.38;102551.55;2267318;78;50694;-70
2023/02/09 11:02:30;;;;;;;;;;;;;;;18.39;51.47;102536.21;2267125;78;51554;-70
2023/02/09 11:05:33;;;;;;;;;;;;;;;18.31;51.59;102542.75;2267400;78;51573;-72
2023/02/09 11:08:36;;;;;;;;;;;;;;;18.27;51.67;102530.12;2246353;78;50966;-70
2023/02/09 11:11:38;;;;;;;;;;;;;;;18.27;51.64;102525.27;2278431;77;51567;-69
2023/02/09 11:14:41;;;;;;;;;;;;;;;18.26;51.66;102517.72;2299469;77;51564;-71
2023/02/09 11:17:44;;;;;;;;;;;;;;;18.24;51.75;102503.61;2294218;76;50789;-71
2023/02/09 11:20:48;;;;;;;;;;;;;;;18.29;51.63;102495.16;2249336;77;49641;-71
2023/02/09 11:23:51;;;;;;;;;;;;;;;18.37;51.37;102479.24;2305731;77;50330;-71
2023/02/09 11:26:54;;;;;;;;;;;;;;;18.39;51.35;102475.91;2305634;77;52759;-71
2023/02/09 11:30:00;;;;;;;;;;;;;;;18.40;51.30;102472.77;2305827;77;51588;-70
2023/02/09 11:33:03;;;;;;;;;;;;;;;18.43;51.28;102476.50;2282992;77;51325;-70
2023/02/09 11:36:12;;;;;;;;;;;;;;;18.47;51.12;102481.45;2283951;77;51557;-71
2023/02/09 11:39:15;;;;;;;;;;;;;;;18.50;51.02;102481.17;2305658;77;50897;-71
2023/02/09 11:45:40;;;;;;;;;;;;;;;18.55;50.95;102486.59;2306284;77;22322;-69
2023/02/09 11:48:43;;;;;;;;;;;;;;;18.59;50.82;102484.01;2283924;77;51434;-72
2023/02/09 11:51:44;;;;;;;;;;;;;;;18.53;50.93;102487.25;2267412;78;50438;-70
2023/02/09 11:54:47;;;;;;;;;;;;;;;18.47;51.02;102486.81;2267261;78;50643;-70
2023/02/09 11:57:50;;;;;;;;;;;;;;;18.45;51.06;102482.58;2246291;78;51180;-71
2023/02/09 12:00:53;;;;;;;;;;;;;;;18.40;51.12;102487.00;2246174;78;51733;-69
2023/02/09 12:03:56;;;;;;;;;;;;;;;18.35;51.20;102478.53;2267127;78;51479;-70
2023/02/09 12:07:02;;;;;;;;;;;;;;;18.32;51.27;102481.48;2267448;78;50329;-69
2023/02/09 12:10:14;;;;;;;;;;;;;;;18.30;51.29;102475.91;2264139;77;50096;-72
2023/02/09 12:13:33;;;;;;;;;;;;;;;18.28;51.31;102486.25;2299393;77;50820;-70
2023/02/09 12:16:36;;;;;;;;;;;;;;;18.31;51.32;102469.05;2293208;77;50853;-69
2023/02/09 12:19:39;;;;;;;;;;;;;;;18.38;51.18;102469.37;2291297;77;51506;-71
2023/02/09 12:22:46;;;;;;;;;;;;;;;18.39;51.15;102465.19;2252419;77;49607;-71
2023/02/09 12:25:51;;;;;;;;;;;;;;;18.44;51.03;102474.16;2276227;78;51569;-71
2023/02/09 12:29:02;;;;;;;;;;;;;;;18.49;50.87;102472.77;2252485;78;50546;-71
2023/02/09 12:32:05;;;;;;;;;;;;;;;18.55;50.75;102464.69;2275945;78;23036;-70
2023/02/09 12:35:21;;;;;;;;;;;;;;;18.56;50.77;102465.02;2278061;78;51277;-72
2023/02/09 12:38:22;;;;;;;;;;;;;;;18.62;50.58;102464.46;2213382;79;51257;-72
2023/02/09 12:41:24;;;;;;;;;;;;;;;18.60;50.57;102462.44;2205006;80;50329;-71
2023/02/09 12:44:28;;;;;;;;;;;;;;;18.51;50.74;102451.19;2205014;80;51633;-72
2023/02/09 12:47:45;;;;;;;;;;;;;;;18.49;50.75;102454.49;2221834;79;52472;-71
2023/02/09 12:50:48;;;;;;;;;;;;;;;18.45;50.85;102441.88;2203143;80;50360;-71
2023/02/09 12:53:52;;;;;;;;;;;;;;;18.39;50.92;102440.23;2229614;78;50763;-72
2023/02/09 12:56:53;;;;;;;;;;;;;;;18.35;51.03;102444.19;2213060;78;22366;-71
2023/02/09 12:59:58;;;;;;;;;;;;;;;18.31;51.14;102439.58;2213151;79;51211;-71
2023/02/09 13:03:00;;;;;;;;;;;;;;;18.31;51.15;102436.05;2213336;80;22515;-71
2023/02/09 13:06:04;;;;;;;;;;;;;;;18.35;51.02;102443.69;2215899;78;50834;-71
2023/02/09 13:09:07;;;;;;;;;;;;;;;18.35;51.06;102443.69;2214164;80;50041;-71
2023/02/09 13:12:13;;;;;;;;;;;;;;;18.42;50.96;102459.58;2225658;79;52917;-71
2023/02/09 13:15:16;;;;;;;;;;;;;;;18.47;50.77;102451.97;2260466;78;51511;-71
2023/02/09 13:18:21;;;;;;;;;;;;;;;18.54;50.64;102458.95;2268652;78;50018;-71
2023/02/09 13:21:40;;;;;;;;;;;;;;;18.58;50.56;102461.72;2254047;78;50781;-69
2023/02/09 13:24:43;;;;;;;;;;;;;;;18.61;50.46;102468.14;2271302;78;51891;-70
2023/02/09 13:27:46;;;;;;;;;;;;;;;18.63;50.41;102469.36;2266778;78;51069;-71
2023/02/09 13:30:47;;;;;;;;;;;;;;;18.66;50.37;102477.11;2267916;78;51621;-70
2023/02/09 13:33:50;;;;;;;;;;;;;;;18.62;50.42;102475.69;2268698;78;51540;-72
2023/02/09 13:36:57;;;;;;;;;;;;;;;18.56;50.53;102470.89;2247930;78;51123;-70
2023/02/09 13:40:02;;;;;;;;;;;;;;;18.46;50.71;102480.24;2264517;78;50868;-69
2023/02/09 13:43:12;;;;;;;;;;;;;;;18.41;50.83;102487.34;2271287;77;51555;-69
2023/02/09 13:46:15;;;;;;;;;;;;;;;18.36;50.88;102484.23;2279356;77;51578;-70
2023/02/09 13:49:17;;;;;;;;;;;;;;;18.32;51.00;102482.83;2258866;77;52315;-70
2023/02/09 13:52:22;;;;;;;;;;;;;;;18.34;50.94;102488.91;2265321;78;49944;-71
2023/02/09 13:55:25;;;;;;;;;;;;;;;18.33;50.95;102487.19;2244404;78;50273;-70
2023/02/09 13:58:36;;;;;;;;;;;;;;;18.38;50.79;102478.75;2276381;76;52099;-70
2023/02/09 14:01:39;;;;;;;;;;;;;;;18.39;50.76;102464.34;2243058;78;51692;-71
2023/02/09 14:04:41;;;;;;;;;;;;;;;18.45;50.59;102445.05;2264316;78;50309;-70
2023/02/09 14:07:42;;;;;;;;;;;;;;;18.46;50.59;102456.12;2264574;78;50743;-70
2023/02/09 14:10:45;;;;;;;;;;;;;;;18.48;50.56;102450.97;2248245;77;51528;-71
2023/02/09 14:13:51;;;;;;;;;;;;;;;18.54;50.39;102446.89;2296144;77;51595;-70
2023/02/09 14:17:08;;;;;;;;;;;;;;;18.54;50.41;102436.16;2302151;76;50585;-73
2023/02/09 14:20:17;;;;;;;;;;;;;;;18.60;50.26;102420.88;2300892;77;51582;-71
2023/02/09 14:23:19;;;;;;;;;;;;;;;18.63;50.19;102421.93;2266681;77;50897;-71
2023/02/09 14:26:21;;;;;;;;;;;;;;;18.62;50.21;102430.10;2290033;77;49579;-70
2023/02/09 14:29:25;;;;;;;;;;;;;;;18.60;50.25;102446.35;2248513;77;50720;-70
2023/02/09 14:32:28;;;;;;;;;;;;;;;18.52;50.41;102437.29;2301940;77;51544;-71
2023/02/09 14:35:40;;;;;;;;;;;;;;;18.42;50.61;102435.45;2302320;77;51539;-72
2023/02/09 14:38:41;;;;;;;;;;;;;;;18.38;50.73;102420.63;2303772;76;51235;-72
2023/02/09 14:41:48;;;;;;;;;;;;;;;18.33;50.81;102428.23;2288730;77;50738;-72
2023/02/09 14:44:51;;;;;;;;;;;;;;;18.32;50.83;102439.95;2290117;77;50433;-72
2023/02/09 14:47:52;;;;;;;;;;;;;;;18.32;50.83;102448.48;2305352;77;50460;-73
2023/02/09 14:50:55;;;;;;;;;;;;;;;18.34;50.74;102452.72;2281100;77;49778;-73
2023/02/09 14:53:56;;;;;;;;;;;;;;;18.36;50.74;102458.77;2281195;77;51516;-72
2023/02/09 14:56:59;;;;;;;;;;;;;;;18.43;50.65;102463.10;2305203;77;51413;-72
2023/02/09 15:00:02;;;;;;;;;;;;;;;18.46;50.54;102470.36;2305461;77;50392;-72
2023/02/09 15:03:04;;;;;;;;;;;;;;;18.57;50.37;102449.78;2280381;77;51446;-72
2023/02/09 15:06:06;;;;;;;;;;;;;;;18.61;50.24;102459.25;2305451;77;51353;-72
2023/02/09 15:09:07;;;;;;;;;;;;;;;18.60;50.25;102450.84;2305345;77;51480;-72
2023/02/09 15:12:19;;;;;;;;;;;;;;;18.67;50.08;102443.94;2287330;77;51430;-72
2023/02/09 15:15:21;;;;;;;;;;;;;;;18.65;50.03;102443.22;2278323;77;51279;-72
2023/02/09 15:18:24;;;;;;;;;;;;;;;18.61;50.09;102446.69;2304450;76;51567;-72
2023/02/09 15:21:25;;;;;;;;;;;;;;;18.56;50.14;102442.23;2302814;77;50442;-72
2023/02/09 15:24:27;;;;;;;;;;;;;;;18.51;50.26;102431.08;2304240;76;50671;-73
2023/02/09 15:27:30;;;;;;;;;;;;;;;18.41;50.47;102424.36;2278794;77;50987;-73
2023/02/09 15:30:33;;;;;;;;;;;;;;;18.36;50.60;102414.55;2302872;76;51713;-73
2023/02/09 15:33:34;;;;;;;;;;;;;;;18.31;50.70;102395.36;2304249;76;51512;-72
2023/02/09 15:36:36;;;;;;;;;;;;;;;18.28;50.78;102415.23;2304333;76;51350;-72
2023/02/09 15:39:37;;;;;;;;;;;;;;;18.30;50.74;102420.48;2275530;77;49504;-73
2023/02/09 15:49:08;;;;;;;;;;;;;;;18.44;50.45;102413.86;2267635;78;22353;-72
2023/02/09 15:52:10;;;;;;;;;;;;;;;18.47;50.33;102429.19;2243348;78;52173;-73
2023/02/09 15:55:13;;;;;;;;;;;;;;;18.50;50.28;102434.77;2266865;78;51449;-71
2023/02/09 15:58:16;;;;;;;;;;;;;;;18.56;50.13;102429.33;2266631;78;50693;-73
2023/02/09 16:01:17;;;;;;;;;;;;;;;18.50;50.51;102423.55;2266741;78;51602;-73
2023/02/09 16:04:19;;;;;;;;;;;;;;;18.60;50.23;102420.00;2243051;78;52441;-72